Decoded Metar for SBPA (PORTO ALEGRE in BRAZIL) (IATA:POA) | Meteo·Mobile Aviation Weather
aviador You're here:

SBPA Decoded Metar

PORTO ALEGRE in BRAZIL
Report Time2018-08-22 05:00:00
UTC Time2018-08-22 05:35:12
Flight Rules ifr IFR
Wind140° at 03 kt
W.Decomp.*RWY 11: 2.1 kt HW 2.2 kt RCW
W.Rank140° ranks 12
Current wind is below 140° avg. (6.5)
Visibility3000 m
Phenomena:Light Rain
Mist
Clouds:Broken 005 Hf
Overcast 010 Hf
Ceiling500 ft
Temp10°C (ISA -5)
Dew Point10°C (100% RH)
AAT9.0°C
QNH1023 hPa
Density Alt-761 ft
Elevation10 ft
Report Wrong Elevation
Raw Report
METAR SBPA 220500Z 14003KT 3000 -RA BR BKN005 OVC010 10/10 Q1023=

Extra information for SBPA:More info

Metar Taf Metar & Taf Last 4 Metars F.Rules Stats Wind Profile Meteogram Temp Stats Airport Information Weather charts Add Link Nearby VenuesMetar ALERT Operation Metar Decoded Social comments